createdAt,value
2022-08-26T00:02:39.919Z,8.25
2022-08-26T00:06:46.356Z,8.15
2022-08-26T00:10:49.773Z,8.30
2022-08-26T00:14:52.646Z,8.48
2022-08-26T00:18:56.017Z,8.27
2022-08-26T00:23:00.285Z,8.30
2022-08-26T00:27:03.054Z,8.63
2022-08-26T00:31:07.147Z,8.50
2022-08-26T00:35:11.847Z,8.00
2022-08-26T00:39:16.014Z,7.93
2022-08-26T00:43:19.882Z,9.38
2022-08-26T00:47:28.509Z,8.38
2022-08-26T00:51:37.142Z,9.30
2022-08-26T00:55:42.994Z,9.07
2022-08-26T00:59:51.900Z,9.32
2022-08-26T01:03:56.450Z,9.60
2022-08-26T01:07:59.374Z,8.30
2022-08-26T01:12:04.847Z,8.95
2022-08-26T01:16:11.647Z,8.80
2022-08-26T01:20:25.771Z,9.02
2022-08-26T01:24:31.196Z,8.85
2022-08-26T01:28:36.778Z,8.85
2022-08-26T01:32:40.958Z,8.70
2022-08-26T01:36:47.926Z,8.55
2022-08-26T01:40:54.931Z,9.00
2022-08-26T01:45:04.439Z,8.98
2022-08-26T01:49:09.040Z,9.45
2022-08-26T01:53:15.787Z,9.88
2022-08-26T01:57:21.175Z,10.15
2022-08-26T02:01:29.207Z,9.75
2022-08-26T02:05:32.234Z,9.70
2022-08-26T02:09:41.277Z,9.63
2022-08-26T02:13:49.437Z,8.98
2022-08-26T02:17:53.904Z,9.13
2022-08-26T02:22:01.513Z,9.15
2022-08-26T02:26:08.750Z,9.30
2022-08-26T02:30:17.161Z,8.98
2022-08-26T02:34:24.416Z,9.02
2022-08-26T02:38:31.174Z,10.18
2022-08-26T02:42:34.110Z,9.93
2022-08-26T02:46:39.098Z,10.88
2022-08-26T02:50:43.399Z,9.27
2022-08-26T02:54:46.280Z,10.30
2022-08-26T02:58:52.380Z,10.45
2022-08-26T03:02:58.093Z,10.77
2022-08-26T03:07:01.034Z,9.30
2022-08-26T03:11:04.238Z,10.95
2022-08-26T03:15:16.647Z,10.48
2022-08-26T03:19:24.041Z,10.40
2022-08-26T03:23:26.989Z,10.80
2022-08-26T03:27:29.787Z,9.70
2022-08-26T03:31:36.150Z,10.18
2022-08-26T03:35:43.034Z,9.73
2022-08-26T03:39:45.866Z,9.80
2022-08-26T03:43:50.746Z,10.80
2022-08-26T03:47:54.004Z,10.13
2022-08-26T03:51:58.330Z,9.98
2022-08-26T03:56:01.240Z,10.55
2022-08-26T04:00:05.803Z,10.52
2022-08-26T04:04:12.389Z,10.35
2022-08-26T04:08:19.705Z,10.40
2022-08-26T04:12:22.475Z,11.13
2022-08-26T04:16:29.539Z,11.02
2022-08-26T04:20:32.449Z,10.80
2022-08-26T04:24:37.132Z,10.82
2022-08-26T04:28:40.124Z,10.52
2022-08-26T04:32:42.886Z,11.20
2022-08-26T04:36:45.745Z,10.48
2022-08-26T04:40:50.079Z,10.65
2022-08-26T04:44:52.897Z,11.15
2022-08-26T04:48:55.690Z,10.43
2022-08-26T04:52:58.442Z,11.00
2022-08-26T04:57:02.545Z,11.43
2022-08-26T05:01:05.780Z,12.07
2022-08-26T05:05:09.711Z,11.88
2022-08-26T05:09:15.279Z,12.43
2022-08-26T05:13:21.169Z,10.40
2022-08-26T05:17:24.273Z,11.38
2022-08-26T05:21:29.046Z,9.73
2022-08-26T05:25:32.032Z,10.77
2022-08-26T05:29:36.296Z,10.82
2022-08-26T05:33:41.311Z,11.13
2022-08-26T05:37:44.545Z,10.55
2022-08-26T05:41:47.520Z,11.07
2022-08-26T05:45:52.102Z,10.60
2022-08-26T05:49:55.398Z,11.20
2022-08-26T05:53:58.376Z,11.05
2022-08-26T05:58:02.728Z,10.88
2022-08-26T06:02:07.073Z,10.93
2022-08-26T06:06:12.940Z,10.98
2022-08-26T06:10:31.590Z,10.55
2022-08-26T06:14:36.037Z,10.93
2022-08-26T06:18:42.544Z,12.23
2022-08-26T06:23:03.048Z,11.75
2022-08-26T06:27:09.901Z,10.93
2022-08-26T06:31:14.605Z,10.60
2022-08-26T06:35:18.954Z,10.10
2022-08-26T06:39:22.110Z,10.70
2022-08-26T06:43:27.425Z,10.63
2022-08-26T06:47:31.420Z,10.73
2022-08-26T06:51:40.766Z,12.32
2022-08-26T06:55:46.837Z,11.60
2022-08-26T06:59:54.572Z,11.90
2022-08-26T07:04:03.545Z,13.75
2022-08-26T07:08:11.928Z,15.18
2022-08-26T07:12:14.956Z,16.83
2022-08-26T07:16:18.626Z,17.88
2022-08-26T07:20:21.896Z,17.25
2022-08-26T07:24:28.426Z,20.25
2022-08-26T07:28:31.840Z,19.65
2022-08-26T07:32:35.388Z,20.85
2022-08-26T07:36:38.260Z,21.27
2022-08-26T07:40:42.495Z,21.20
2022-08-26T07:44:45.303Z,21.33
2022-08-26T07:48:48.849Z,21.83
2022-08-26T07:52:51.695Z,21.95
2022-08-26T07:56:57.260Z,23.83
2022-08-26T08:01:00.589Z,23.92
2022-08-26T08:05:03.532Z,23.17
2022-08-26T08:09:06.977Z,23.45
2022-08-26T08:13:11.707Z,24.83
2022-08-26T08:17:17.774Z,24.42
2022-08-26T08:21:23.688Z,27.15
2022-08-26T08:25:27.053Z,28.55
2022-08-26T08:29:31.286Z,30.20
2022-08-26T08:33:35.014Z,31.95
2022-08-26T08:37:38.121Z,32.05
2022-08-26T08:41:57.520Z,31.58
2022-08-26T08:46:08.828Z,31.92
2022-08-26T08:50:23.657Z,34.63
2022-08-26T08:54:29.085Z,36.60
2022-08-26T08:58:50.069Z,35.55
2022-08-26T09:03:01.919Z,37.25
2022-08-26T09:07:07.957Z,39.53
2022-08-26T09:11:10.951Z,36.10
2022-08-26T09:15:19.546Z,37.00
2022-08-26T09:19:30.990Z,35.33
2022-08-26T09:23:36.626Z,31.15
2022-08-26T09:27:42.819Z,35.03
2022-08-26T09:31:46.125Z,33.38
2022-08-26T09:35:54.223Z,34.47
2022-08-26T09:40:27.754Z,35.45
2022-08-26T09:44:32.110Z,32.78
2022-08-26T09:48:37.984Z,35.92
2022-08-26T09:52:45.245Z,36.60
2022-08-26T09:56:48.150Z,33.97
2022-08-26T10:00:56.338Z,32.78
2022-08-26T10:05:09.185Z,36.05
2022-08-26T10:09:19.476Z,36.00
2022-08-26T10:13:32.975Z,33.78
2022-08-26T10:17:41.338Z,33.67
2022-08-26T10:21:53.110Z,32.63
2022-08-26T10:26:05.283Z,35.92
2022-08-26T10:30:13.448Z,35.55
2022-08-26T10:34:18.066Z,34.60
2022-08-26T10:38:27.202Z,38.30
2022-08-26T10:42:37.619Z,40.60
2022-08-26T10:46:45.926Z,39.08
2022-08-26T10:50:50.376Z,45.45
2022-08-26T10:55:00.678Z,44.60
2022-08-26T10:59:18.003Z,46.40
2022-08-26T11:03:32.546Z,44.65
2022-08-26T11:07:42.081Z,43.50
2022-08-26T11:11:48.802Z,43.03
2022-08-26T11:16:01.182Z,42.05
2022-08-26T11:20:09.213Z,39.15
2022-08-26T11:24:41.757Z,40.17
2022-08-26T11:28:47.710Z,41.92
2022-08-26T11:32:54.825Z,40.00
2022-08-26T11:37:00.054Z,39.13
2022-08-26T11:41:10.012Z,38.10
2022-08-26T11:45:20.410Z,38.45
2022-08-26T11:49:25.601Z,36.05
2022-08-26T11:53:30.258Z,37.85
2022-08-26T11:57:35.176Z,37.65
2022-08-26T12:01:40.656Z,37.70
2022-08-26T12:05:47.721Z,35.38
2022-08-26T12:09:57.054Z,35.50
2022-08-26T12:14:02.652Z,36.20
2022-08-26T12:18:22.090Z,34.28
2022-08-26T12:22:36.006Z,34.60
2022-08-26T12:26:39.527Z,34.17
2022-08-26T12:30:42.902Z,30.50
2022-08-26T12:34:48.964Z,28.88
2022-08-26T12:38:55.461Z,30.90
2022-08-26T12:43:02.286Z,28.48
2022-08-26T12:47:09.154Z,27.90
2022-08-26T12:51:26.381Z,28.77
2022-08-26T12:55:40.300Z,28.67
2022-08-26T12:59:43.167Z,28.15
2022-08-26T13:03:46.602Z,28.52
2022-08-26T13:08:11.419Z,27.10
2022-08-26T13:12:24.984Z,28.65
2022-08-26T13:16:28.398Z,25.25
2022-08-26T13:20:32.186Z,27.40
2022-08-26T13:24:37.964Z,26.40
2022-08-26T13:28:42.605Z,28.50
2022-08-26T13:32:45.405Z,27.98
2022-08-26T13:36:48.802Z,23.90
2022-08-26T13:40:51.601Z,25.42
2022-08-26T13:44:57.996Z,26.10
2022-08-26T13:49:00.824Z,27.23
2022-08-26T13:53:03.785Z,25.38
2022-08-26T13:57:06.855Z,29.23
2022-08-26T14:01:11.214Z,30.08
2022-08-26T14:05:14.204Z,28.98
2022-08-26T14:09:16.988Z,28.80
2022-08-26T14:13:20.270Z,27.75
2022-08-26T14:17:26.137Z,29.58
2022-08-26T14:21:30.894Z,25.75
2022-08-26T14:25:34.499Z,28.58
2022-08-26T14:29:37.382Z,28.30
2022-08-26T14:33:42.286Z,26.77
2022-08-26T14:37:45.286Z,28.37
2022-08-26T14:41:53.952Z,26.60
2022-08-26T14:45:57.666Z,24.73
2022-08-26T14:50:02.468Z,25.88
2022-08-26T14:54:16.016Z,22.50
2022-08-26T14:58:18.790Z,23.63
2022-08-26T15:02:32.394Z,22.38
2022-08-26T15:06:38.118Z,21.38
2022-08-26T15:10:41.330Z,21.13
2022-08-26T15:14:44.171Z,20.50
2022-08-26T15:18:46.960Z,19.77
2022-08-26T15:22:51.176Z,18.85
2022-08-26T15:26:54.371Z,18.80
2022-08-26T15:30:57.535Z,18.35
2022-08-26T15:35:02.038Z,17.38
2022-08-26T15:39:08.849Z,17.88
2022-08-26T15:43:27.841Z,17.65
2022-08-26T15:47:31.378Z,16.98
2022-08-26T15:51:45.692Z,17.00
2022-08-26T15:55:50.666Z,16.58
2022-08-26T15:59:55.465Z,15.95
2022-08-26T16:03:58.582Z,16.17
2022-08-26T16:08:01.883Z,15.82
2022-08-26T16:12:06.514Z,14.43
2022-08-26T16:16:10.008Z,14.98
2022-08-26T16:20:13.150Z,16.75
2022-08-26T16:24:16.119Z,14.75
2022-08-26T16:28:26.228Z,16.42
2022-08-26T16:32:31.281Z,15.57
2022-08-26T16:36:35.138Z,15.80
2022-08-26T16:40:38.589Z,15.32
2022-08-26T16:44:45.178Z,14.57
2022-08-26T16:48:48.703Z,14.02
2022-08-26T16:52:55.558Z,14.95
2022-08-26T16:56:58.857Z,14.18
2022-08-26T17:01:02.961Z,14.18
2022-08-26T17:05:07.041Z,8.75
2022-08-26T17:09:09.893Z,6.80
2022-08-26T17:13:12.754Z,5.90
2022-08-26T17:17:28.173Z,6.28
2022-08-26T17:21:32.633Z,6.32
2022-08-26T17:25:35.406Z,6.68
2022-08-26T17:29:38.217Z,6.30
2022-08-26T17:33:42.327Z,6.88
2022-08-26T17:37:46.481Z,7.00
2022-08-26T17:41:49.233Z,7.63
2022-08-26T17:45:52.601Z,7.57
2022-08-26T17:49:56.780Z,6.93
2022-08-26T17:53:59.658Z,8.20
2022-08-26T17:58:03.946Z,7.60
2022-08-26T18:02:10.077Z,7.57
2022-08-26T18:06:15.205Z,8.00
2022-08-26T18:10:19.753Z,6.95
2022-08-26T18:14:22.563Z,6.60
2022-08-26T18:18:25.362Z,7.18
2022-08-26T18:22:29.510Z,6.70
2022-08-26T18:26:34.389Z,6.63
2022-08-26T18:30:37.212Z,6.43
2022-08-26T18:34:40.150Z,6.50
2022-08-26T18:38:44.299Z,6.10
2022-08-26T18:42:54.065Z,6.35
2022-08-26T18:46:57.085Z,7.10
2022-08-26T18:51:00.240Z,6.90
2022-08-26T18:55:05.192Z,6.80
2022-08-26T18:59:09.220Z,6.57
2022-08-26T19:03:18.821Z,7.22
2022-08-26T19:07:22.386Z,6.63
2022-08-26T19:11:31.319Z,6.20
2022-08-26T19:15:38.650Z,6.90
2022-08-26T19:19:41.544Z,6.43
2022-08-26T19:23:45.134Z,7.28
2022-08-26T19:27:49.364Z,8.30
2022-08-26T19:31:52.251Z,8.23
2022-08-26T19:35:55.770Z,8.60
2022-08-26T19:39:58.599Z,8.32
2022-08-26T19:44:03.982Z,8.73
2022-08-26T19:48:07.010Z,8.63
2022-08-26T19:52:11.003Z,8.93
2022-08-26T19:56:15.027Z,9.30
2022-08-26T20:00:21.670Z,8.68
2022-08-26T20:04:24.463Z,9.25
2022-08-26T20:08:30.613Z,8.73
2022-08-26T20:12:35.474Z,9.20
2022-08-26T20:16:39.641Z,9.43
2022-08-26T20:21:00.205Z,9.93
2022-08-26T20:25:03.015Z,9.25
2022-08-26T20:29:06.901Z,9.50
2022-08-26T20:33:10.998Z,8.30
2022-08-26T20:37:13.810Z,7.97
2022-08-26T20:41:17.157Z,8.00
2022-08-26T20:45:20.152Z,7.90
2022-08-26T20:49:24.246Z,7.47
2022-08-26T20:53:27.676Z,7.97
2022-08-26T20:57:30.453Z,7.13
2022-08-26T21:01:35.394Z,7.00
2022-08-26T21:05:39.531Z,6.82
2022-08-26T21:09:42.449Z,6.47
2022-08-26T21:14:04.307Z,5.82
2022-08-26T21:18:08.259Z,5.88
2022-08-26T21:22:12.336Z,5.43
2022-08-26T21:26:17.185Z,5.28
2022-08-26T21:30:20.344Z,5.05
2022-08-26T21:34:23.090Z,5.43
2022-08-26T21:38:28.408Z,5.43
2022-08-26T21:42:33.532Z,5.32
2022-08-26T21:46:37.287Z,4.93
2022-08-26T21:50:40.146Z,5.40
2022-08-26T21:54:49.448Z,5.53
2022-08-26T21:58:54.879Z,5.40
2022-08-26T22:03:00.609Z,5.45
2022-08-26T22:07:04.246Z,4.97
2022-08-26T22:11:09.480Z,5.45
2022-08-26T22:15:12.957Z,5.38
2022-08-26T22:19:17.487Z,5.60
2022-08-26T22:23:21.839Z,4.68
2022-08-26T22:27:26.319Z,5.78
2022-08-26T22:31:38.308Z,4.97
2022-08-26T22:35:43.127Z,5.38
2022-08-26T22:39:46.222Z,5.13
2022-08-26T22:43:50.450Z,5.10
2022-08-26T22:47:53.300Z,4.95
2022-08-26T22:51:56.092Z,4.95
2022-08-26T22:55:59.318Z,5.13
2022-08-26T23:00:06.299Z,5.10
2022-08-26T23:04:09.592Z,4.40
2022-08-26T23:08:13.461Z,4.90
2022-08-26T23:12:16.427Z,4.50
2022-08-26T23:16:21.094Z,5.30
2022-08-26T23:20:24.246Z,4.53
2022-08-26T23:24:27.010Z,5.00
2022-08-26T23:28:30.014Z,4.88
2022-08-26T23:32:34.151Z,5.00
2022-08-26T23:36:37.175Z,5.50
2022-08-26T23:40:40.647Z,5.07
2022-08-26T23:44:43.607Z,5.93
2022-08-26T23:48:48.319Z,5.65
2022-08-26T23:53:06.638Z,5.32
2022-08-26T23:57:10.498Z,4.90
